Time;durP1;ratioP1;P1;durP2;ratioP2;P2;SDS_P1;SDS_P2;PMS_P1;PMS_P2;Temp;Humidity;BMP_temperature;BMP_pressure;BME280_temperature;BME280_humidity;BME280_pressure;Samples;Min_cycle;Max_cycle;Signal;HPM_P1;HPM_P2
2022/01/17 00:09:46;;;;;;;2.70;1.87;;;;;;;;;;21191134;27;20279;-78
2022/01/17 00:19:52;;;;;;;0.97;0.77;;;;;;;;;;21281992;27;20763;-78
2022/01/17 00:29:54;;;;;;;0.80;0.70;;;;;;;;;;21333657;27;20271;-79
2022/01/17 00:39:56;;;;;;;3.83;1.83;;;;;;;;;;21314003;27;20267;-79
2022/01/17 00:49:58;;;;;;;2.07;1.60;;;;;;;;;;21287097;27;20699;-78
2022/01/17 01:00:01;;;;;;;0.60;0.60;;;;;;;;;;21304480;27;20287;-79
2022/01/17 01:10:14;;;;;;;1.77;1.40;;;2.60;99.90;;;;;;21329463;27;20226;-79
2022/01/17 01:30:39;;;;;;;2.73;2.10;;;;;;;;;;21253539;27;20627;-78
2022/01/17 01:40:41;;;;;;;3.27;2.73;;;;;;;;;;21242939;27;20647;-78
2022/01/17 01:50:43;;;;;;;3.57;1.83;;;;;;;;;;21241038;28;20207;-78
2022/01/17 02:00:45;;;;;;;3.00;2.00;;;;;;;;;;21253393;27;20268;-78
2022/01/17 02:10:49;;;;;;;1.43;1.30;;;;;;;;;;21201376;27;20227;-79
2022/01/17 02:31:11;;;;;;;3.67;1.90;;;;;;;;;;21140182;28;20239;-80
2022/01/17 02:41:13;;;;;;;2.37;1.60;;;;;;;;;;21163076;28;20253;-78
2022/01/17 02:51:14;;;;;;;0.93;0.63;;;;;;;;;;21150875;28;20261;-79
2022/01/17 03:01:18;;;;;;;2.43;1.67;;;;;;;;;;21111117;28;20232;-78
2022/01/17 03:11:21;;;;;;;3.00;1.80;;;;;;;;;;21204759;27;20298;-79
2022/01/17 03:21:27;;;;;;;1.83;1.73;;;;;;;;;;21320075;27;20222;-79
2022/01/17 03:31:28;;;;;;;2.07;1.40;;;;;;;;;;21324309;27;20259;-78
2022/01/17 03:41:30;;;;;;;2.30;1.43;;;;;;;;;;21285185;27;20586;-80
2022/01/17 03:51:32;;;;;;;2.10;1.90;;;;;;;;;;21319596;27;20274;-79
2022/01/17 04:01:33;;;;;;;3.40;2.07;;;;;;;;;;21310374;27;20234;-78
2022/01/17 04:11:36;;;;;;;0.90;0.60;;;;;;;;;;21258543;27;20220;-78
2022/01/17 04:21:38;;;;;;;2.67;1.87;;;;;;;;;;21162857;28;20285;-79
2022/01/17 04:31:40;;;;;;;2.50;1.50;;;;;;;;;;21148910;28;20220;-78
2022/01/17 04:41:42;;;;;;;2.73;1.60;;;;;;;;;;21153610;28;20246;-79
2022/01/17 04:51:45;;;;;;;1.90;1.57;;;;;;;;;;21103397;28;20212;-79
2022/01/17 05:01:47;;;;;;;3.43;2.27;;;;;;;;;;21092269;28;20223;-80
2022/01/17 05:11:49;;;;;;;0.70;0.70;;;;;;;;;;21205944;27;20230;-79
2022/01/17 05:21:51;;;;;;;1.77;1.37;;;;;;;;;;21317214;27;20214;-80
2022/01/17 05:31:53;;;;;;;1.90;1.37;;;;;;;;;;21345355;27;20211;-80
2022/01/17 05:41:55;;;;;;;2.03;1.57;;;;;;;;;;21300585;27;20226;-79
2022/01/17 05:51:56;;;;;;;1.90;1.20;;;;;;;;;;21323137;27;20579;-82
2022/01/17 06:01:59;;;;;;;2.87;1.60;;;;;;;;;;21294217;27;20226;-80
2022/01/17 06:12:00;;;;;;;4.07;1.83;;;;;;;;;;21262064;27;20678;-80
2022/01/17 06:22:03;;;;;;;2.37;1.47;;;1.30;99.90;;;;;;21187791;27;20279;-79
2022/01/17 06:32:06;;;;;;;2.30;1.70;;;;;;;;;;21294878;27;20215;-80
2022/01/17 06:42:08;;;;;;;2.63;1.70;;;;;;;;;;21313345;27;20630;-80
2022/01/17 06:52:11;;;;;;;1.77;1.17;;;;;;;;;;21341491;27;20214;-79
2022/01/17 07:02:12;;;;;;;2.63;1.70;;;;;;;;;;21323311;27;20222;-80
2022/01/17 07:12:14;;;;;;;2.23;1.37;;;;;;;;;;21322431;27;20256;-79
2022/01/17 07:22:16;;;;;;;1.63;1.20;;;;;;;;;;21297253;27;20268;-80
2022/01/17 07:32:17;;;;;;;2.20;1.27;;;;;;;;;;21304500;27;20222;-78
2022/01/17 07:42:19;;;;;;;2.60;1.50;;;;;;;;;;21335145;27;20248;-79
